createdAt,value
2019-01-15T00:00:30.961Z,3.77
2019-01-15T00:03:01.860Z,2.70
2019-01-15T00:05:32.869Z,3.37
2019-01-15T00:08:03.773Z,2.93
2019-01-15T00:10:34.709Z,3.30
2019-01-15T00:13:05.716Z,3.53
2019-01-15T00:15:36.631Z,3.33
2019-01-15T00:18:07.840Z,3.27
2019-01-15T00:20:38.729Z,3.50
2019-01-15T00:23:10.551Z,2.97
2019-01-15T00:25:43.261Z,2.80
2019-01-15T00:28:14.223Z,3.40
2019-01-15T00:30:45.113Z,3.60
2019-01-15T00:33:16.023Z,3.00
2019-01-15T00:35:46.944Z,3.87
2019-01-15T00:38:17.836Z,2.83
2019-01-15T00:40:48.878Z,3.40
2019-01-15T00:43:20.090Z,4.07
2019-01-15T00:45:51.304Z,3.03
2019-01-15T00:48:22.245Z,4.93
2019-01-15T00:50:53.468Z,3.57
2019-01-15T00:53:24.710Z,3.20
2019-01-15T00:55:55.712Z,3.50
2019-01-15T00:58:26.659Z,3.73
2019-01-15T01:00:57.602Z,4.17
2019-01-15T01:03:28.503Z,2.70
2019-01-15T01:05:59.453Z,3.40
2019-01-15T01:08:30.403Z,3.10
2019-01-15T01:11:01.320Z,3.20
2019-01-15T01:13:32.555Z,3.10
2019-01-15T01:16:03.994Z,2.20
2019-01-15T01:18:34.936Z,4.20
2019-01-15T01:21:05.974Z,2.93
2019-01-15T01:23:36.906Z,3.80
2019-01-15T01:26:08.216Z,3.23
2019-01-15T01:28:39.124Z,2.80
2019-01-15T01:31:10.068Z,2.70
2019-01-15T01:33:40.971Z,3.33
2019-01-15T01:36:11.856Z,4.70
2019-01-15T01:38:42.774Z,3.93
2019-01-15T01:41:13.972Z,3.03
2019-01-15T01:43:44.919Z,3.73
2019-01-15T01:46:15.810Z,3.37
2019-01-15T01:48:46.705Z,3.70
2019-01-15T01:51:17.652Z,3.00
2019-01-15T01:53:48.562Z,3.60
2019-01-15T01:56:19.503Z,3.00
2019-01-15T01:58:50.404Z,3.23
2019-01-15T02:01:21.332Z,3.03
2019-01-15T02:03:53.066Z,2.50
2019-01-15T02:06:24.970Z,3.40
2019-01-15T02:08:55.958Z,3.10
2019-01-15T02:11:26.852Z,2.60
2019-01-15T02:13:57.761Z,2.73
2019-01-15T02:16:28.684Z,2.93
2019-01-15T02:18:59.590Z,2.83
2019-01-15T02:21:30.559Z,2.77
2019-01-15T02:24:01.815Z,3.20
2019-01-15T02:26:32.715Z,3.73
2019-01-15T02:29:03.741Z,3.00
2019-01-15T02:31:34.628Z,2.70
2019-01-15T02:34:05.969Z,2.37
2019-01-15T02:36:36.856Z,3.70
2019-01-15T02:39:09.278Z,3.43
2019-01-15T02:41:40.266Z,3.27
2019-01-15T02:44:11.155Z,2.50
2019-01-15T02:46:42.106Z,3.50
2019-01-15T02:49:12.991Z,3.10
2019-01-15T02:51:43.886Z,2.97
2019-01-15T02:54:14.814Z,3.43
2019-01-15T02:56:45.708Z,2.40
2019-01-15T02:59:16.659Z,2.80
2019-01-15T03:01:47.932Z,3.17
2019-01-15T03:04:19.088Z,4.10
2019-01-15T03:06:50.012Z,2.90
2019-01-15T03:09:20.908Z,3.70
2019-01-15T03:11:51.842Z,2.10
2019-01-15T03:14:22.810Z,2.07
2019-01-15T03:16:53.988Z,3.20
2019-01-15T03:19:24.903Z,3.53
2019-01-15T03:21:55.800Z,2.70
2019-01-15T03:24:27.034Z,2.60
2019-01-15T03:26:57.925Z,3.13
2019-01-15T03:29:28.869Z,2.17
2019-01-15T03:31:59.839Z,2.20
2019-01-15T03:34:31.102Z,2.80
2019-01-15T03:37:02.036Z,2.37
2019-01-15T03:39:33.239Z,2.37
2019-01-15T03:42:04.291Z,2.63
2019-01-15T03:44:35.200Z,2.80
2019-01-15T03:47:06.087Z,2.50
2019-01-15T03:49:37.032Z,2.57
2019-01-15T03:52:07.919Z,2.37
2019-01-15T03:54:38.813Z,2.03
2019-01-15T03:57:09.791Z,2.10
2019-01-15T03:59:40.689Z,1.50
2019-01-15T04:02:12.791Z,2.43
2019-01-15T04:04:44.150Z,2.33
2019-01-15T04:07:16.322Z,2.60
2019-01-15T04:09:48.008Z,2.60
2019-01-15T04:12:19.314Z,3.40
2019-01-15T04:14:50.369Z,3.80
2019-01-15T04:17:21.280Z,3.80
2019-01-15T04:19:52.171Z,2.70
2019-01-15T04:22:23.093Z,2.90
2019-01-15T04:24:54.285Z,2.00
2019-01-15T04:27:25.615Z,3.00
2019-01-15T04:29:56.549Z,2.00
2019-01-15T04:32:27.469Z,3.10
2019-01-15T04:34:59.081Z,2.83
2019-01-15T04:37:30.078Z,2.30
2019-01-15T04:40:01.029Z,2.90
2019-01-15T04:42:31.991Z,2.47
2019-01-15T04:45:03.115Z,1.90
2019-01-15T04:47:34.033Z,2.50
2019-01-15T04:50:05.764Z,2.07
2019-01-15T04:52:37.193Z,2.30
2019-01-15T04:55:08.970Z,2.30
2019-01-15T04:57:39.849Z,2.10
2019-01-15T05:00:15.529Z,2.40
2019-01-15T05:02:46.989Z,2.00
2019-01-15T05:05:18.038Z,2.00
2019-01-15T05:07:49.012Z,1.80
2019-01-15T05:10:20.213Z,1.70
2019-01-15T05:12:51.223Z,1.90
2019-01-15T05:15:22.401Z,2.20
2019-01-15T05:17:53.346Z,2.30
2019-01-15T05:20:24.229Z,2.47
2019-01-15T05:22:55.118Z,2.10
2019-01-15T05:25:26.042Z,1.90
2019-01-15T05:27:56.930Z,1.80
2019-01-15T05:30:30.454Z,2.00
2019-01-15T05:33:01.353Z,2.20
2019-01-15T05:35:32.257Z,2.23
2019-01-15T05:38:03.258Z,1.70
2019-01-15T05:40:34.138Z,2.70
2019-01-15T05:43:05.085Z,2.10
2019-01-15T05:45:38.061Z,1.70
2019-01-15T05:48:16.398Z,2.13
2019-01-15T05:51:06.150Z,2.03
2019-01-15T05:53:37.133Z,1.60
2019-01-15T05:56:09.522Z,1.87
2019-01-15T05:58:40.552Z,2.33
2019-01-15T06:01:11.468Z,2.03
2019-01-15T06:03:42.365Z,2.57
2019-01-15T06:06:13.302Z,2.03
2019-01-15T06:08:44.223Z,1.63
2019-01-15T06:11:15.426Z,1.73
2019-01-15T06:13:46.345Z,1.77
2019-01-15T06:16:17.229Z,2.50
2019-01-15T06:18:48.165Z,1.90
2019-01-15T06:21:19.370Z,1.20
2019-01-15T06:23:50.556Z,1.50
2019-01-15T06:26:21.464Z,1.93
2019-01-15T06:28:52.560Z,1.87
2019-01-15T06:32:17.701Z,1.57
2019-01-15T06:34:53.740Z,1.50
2019-01-15T06:37:24.850Z,1.87
2019-01-15T06:39:55.744Z,1.73
2019-01-15T06:42:26.747Z,1.50
2019-01-15T06:44:57.966Z,2.77
2019-01-15T06:47:28.894Z,1.40
2019-01-15T06:49:59.820Z,1.60
2019-01-15T06:52:30.714Z,1.93
2019-01-15T06:55:01.601Z,1.73
2019-01-15T06:57:32.535Z,1.90
2019-01-15T07:00:03.484Z,1.67
2019-01-15T07:02:34.447Z,2.60
2019-01-15T07:05:05.959Z,1.77
2019-01-15T07:07:36.846Z,2.13
2019-01-15T07:10:11.142Z,1.70
2019-01-15T07:12:42.032Z,2.33
2019-01-15T07:15:13.152Z,2.83
2019-01-15T07:17:44.078Z,1.77
2019-01-15T07:20:15.738Z,3.03
2019-01-15T07:22:46.664Z,2.30
2019-01-15T07:25:18.114Z,2.30
2019-01-15T07:27:49.077Z,2.50
2019-01-15T07:30:24.146Z,2.33
2019-01-15T07:32:55.525Z,2.53
2019-01-15T07:35:27.322Z,2.33
2019-01-15T07:37:58.571Z,3.00
2019-01-15T07:40:29.458Z,2.80
2019-01-15T07:43:00.410Z,3.67
2019-01-15T07:45:31.357Z,3.20
2019-01-15T07:48:02.251Z,3.97
2019-01-15T07:50:33.189Z,4.60
2019-01-15T07:53:04.283Z,4.97
2019-01-15T07:55:35.176Z,4.80
2019-01-15T07:58:06.201Z,6.10
2019-01-15T08:00:37.103Z,6.20
2019-01-15T08:03:08.140Z,7.40
2019-01-15T08:05:39.044Z,7.70
2019-01-15T08:08:10.381Z,7.80
2019-01-15T08:10:41.767Z,7.90
2019-01-15T08:13:12.885Z,7.90
2019-01-15T08:15:43.818Z,9.03
2019-01-15T08:18:14.706Z,8.43
2019-01-15T08:20:45.696Z,10.60
2019-01-15T08:23:16.625Z,10.30
2019-01-15T08:25:47.537Z,10.50
2019-01-15T08:28:18.505Z,10.90
2019-01-15T08:30:49.401Z,11.37
2019-01-15T08:33:20.299Z,10.60
2019-01-15T08:35:51.251Z,13.23
2019-01-15T08:38:22.156Z,11.80
2019-01-15T08:40:53.381Z,13.00
2019-01-15T08:43:24.280Z,12.90
2019-01-15T08:45:55.489Z,13.70
2019-01-15T08:48:29.399Z,13.20
2019-01-15T08:51:00.681Z,13.50
2019-01-15T08:53:31.909Z,13.30
2019-01-15T08:56:03.075Z,14.57
2019-01-15T08:58:33.980Z,13.50
2019-01-15T09:01:05.222Z,14.67
2019-01-15T09:03:36.221Z,13.90
2019-01-15T09:06:07.324Z,16.20
2019-01-15T09:08:38.548Z,13.80
2019-01-15T09:11:09.439Z,14.83
2019-01-15T09:13:40.450Z,13.20
2019-01-15T09:16:11.365Z,14.60
2019-01-15T09:18:42.513Z,14.23
2019-01-15T09:21:13.523Z,14.70
2019-01-15T09:23:44.480Z,15.80
2019-01-15T09:26:15.713Z,14.47
2019-01-15T09:28:46.703Z,15.17
2019-01-15T09:31:17.932Z,15.77
2019-01-15T09:33:48.828Z,16.60
2019-01-15T09:36:20.058Z,17.63
2019-01-15T09:38:51.280Z,16.47
2019-01-15T09:41:22.192Z,17.93
2019-01-15T09:43:53.142Z,16.43
2019-01-15T09:46:24.034Z,17.13
2019-01-15T09:48:55.030Z,16.87
2019-01-15T09:51:25.950Z,16.83
2019-01-15T09:53:56.842Z,16.80
2019-01-15T09:56:27.768Z,17.87
2019-01-15T09:58:58.666Z,17.43
2019-01-15T10:01:29.554Z,16.40
2019-01-15T10:04:00.499Z,16.77
2019-01-15T10:06:31.457Z,18.13
2019-01-15T10:09:02.395Z,16.27
2019-01-15T10:11:33.278Z,17.30
2019-01-15T10:14:04.381Z,17.23
2019-01-15T10:16:35.599Z,16.23
2019-01-15T10:19:06.489Z,17.53
2019-01-15T10:21:37.439Z,18.43
2019-01-15T10:24:08.419Z,17.63
2019-01-15T10:26:39.434Z,19.00
2019-01-15T10:29:10.412Z,17.37
2019-01-15T10:32:45.702Z,18.13
2019-01-15T10:35:57.666Z,18.10
2019-01-15T10:38:31.045Z,18.20
2019-01-15T10:41:02.929Z,20.30
2019-01-15T10:43:35.388Z,18.90
2019-01-15T10:46:07.686Z,22.07
2019-01-15T10:48:38.663Z,19.53
2019-01-15T10:51:09.588Z,19.73
2019-01-15T10:53:40.662Z,19.70
2019-01-15T10:56:11.615Z,22.17
2019-01-15T10:58:42.815Z,21.00
2019-01-15T11:01:13.713Z,20.97
2019-01-15T11:03:44.642Z,22.17
2019-01-15T11:06:15.535Z,20.67
2019-01-15T11:08:46.486Z,22.90
2019-01-15T11:11:17.383Z,22.77
2019-01-15T11:13:49.364Z,22.03
2019-01-15T11:16:20.281Z,22.50
2019-01-15T11:18:51.551Z,23.03
2019-01-15T11:21:22.783Z,23.90
2019-01-15T11:23:53.718Z,22.77
2019-01-15T11:26:24.631Z,22.67
2019-01-15T11:28:55.577Z,21.97
2019-01-15T11:31:26.473Z,24.80
2019-01-15T11:33:57.451Z,22.03
2019-01-15T11:36:28.361Z,22.87
2019-01-15T11:38:59.254Z,22.37
2019-01-15T11:41:30.176Z,22.93
2019-01-15T11:44:01.091Z,22.80
2019-01-15T11:46:33.492Z,23.60
2019-01-15T11:49:04.777Z,22.60
2019-01-15T11:51:35.975Z,23.57
2019-01-15T11:54:07.105Z,21.37
2019-01-15T11:56:38.279Z,21.53
2019-01-15T11:59:09.388Z,21.33
2019-01-15T12:01:46.382Z,21.00
2019-01-15T12:04:46.424Z,22.13
2019-01-15T12:07:39.560Z,21.67
2019-01-15T12:10:34.575Z,21.87
2019-01-15T12:13:42.249Z,19.97
2019-01-15T12:16:28.078Z,21.17
2019-01-15T12:19:16.515Z,20.23
2019-01-15T12:22:01.920Z,20.30
2019-01-15T12:24:57.541Z,18.80
2019-01-15T12:27:49.837Z,20.13
2019-01-15T12:30:57.791Z,18.67
2019-01-15T12:33:48.768Z,18.47
2019-01-15T12:36:53.791Z,17.33
2019-01-15T12:39:44.145Z,17.50
2019-01-15T12:42:36.802Z,17.10
2019-01-15T12:45:37.286Z,19.17
2019-01-15T12:48:35.674Z,18.57
2019-01-15T12:51:25.583Z,18.30
2019-01-15T12:54:14.006Z,17.97
2019-01-15T12:57:02.405Z,17.50
2019-01-15T12:59:58.052Z,16.40
2019-01-15T13:03:02.870Z,18.10
2019-01-15T13:05:53.997Z,16.77
2019-01-15T13:09:01.717Z,16.33
2019-01-15T13:12:00.582Z,17.57
2019-01-15T13:14:56.470Z,16.37
2019-01-15T13:17:45.226Z,17.17
2019-01-15T13:20:53.841Z,15.77
2019-01-15T13:23:43.563Z,17.87
2019-01-15T13:26:32.218Z,17.60
2019-01-15T13:29:35.964Z,16.10
2019-01-15T13:32:19.714Z,16.17
2019-01-15T13:35:09.516Z,14.87
2019-01-15T13:38:17.810Z,13.47
2019-01-15T13:41:06.192Z,15.10
2019-01-15T13:44:11.143Z,14.57
2019-01-15T13:47:10.687Z,14.63
2019-01-15T13:50:05.069Z,13.50
2019-01-15T13:53:00.422Z,13.93
2019-01-15T13:55:50.253Z,13.03
2019-01-15T13:58:48.242Z,13.20
2019-01-15T14:01:36.791Z,12.73
2019-01-15T14:04:34.075Z,13.00
2019-01-15T14:07:19.395Z,12.57
2019-01-15T14:10:07.570Z,12.53
2019-01-15T14:12:55.947Z,13.00
2019-01-15T14:15:54.709Z,12.00
2019-01-15T14:18:47.608Z,12.83
2019-01-15T14:21:36.333Z,10.70
2019-01-15T14:24:19.428Z,12.10
2019-01-15T14:27:12.071Z,11.57
2019-01-15T14:29:58.516Z,11.17
2019-01-15T14:32:48.286Z,13.67
2019-01-15T14:35:38.140Z,11.57
2019-01-15T14:38:23.517Z,9.83
2019-01-15T14:41:12.101Z,10.70
2019-01-15T14:44:08.879Z,10.40
2019-01-15T14:47:04.826Z,9.30
2019-01-15T14:49:53.196Z,10.57
2019-01-15T14:52:41.182Z,10.77
2019-01-15T14:55:30.920Z,11.40
2019-01-15T14:58:20.698Z,10.00
2019-01-15T15:01:08.791Z,10.60
2019-01-15T15:03:58.645Z,11.13
2019-01-15T15:06:48.410Z,11.23
2019-01-15T15:09:38.253Z,11.70
2019-01-15T15:12:38.596Z,11.07
2019-01-15T15:15:31.414Z,10.90
2019-01-15T15:18:24.690Z,11.00
2019-01-15T15:21:18.275Z,10.67
2019-01-15T15:24:06.978Z,11.23
2019-01-15T15:26:57.085Z,10.30
2019-01-15T15:29:55.829Z,11.83
2019-01-15T15:32:35.334Z,11.80
2019-01-15T15:35:33.030Z,12.40
2019-01-15T15:38:26.212Z,12.23
2019-01-15T15:41:28.233Z,12.43
2019-01-15T15:44:16.348Z,13.57
2019-01-15T15:46:59.826Z,12.00
2019-01-15T15:49:52.427Z,11.53
2019-01-15T15:52:34.709Z,10.57
2019-01-15T15:55:27.431Z,11.30
2019-01-15T15:58:17.238Z,12.00
2019-01-15T16:01:05.777Z,12.13
2019-01-15T16:03:57.767Z,12.37
2019-01-15T16:06:53.364Z,11.43
2019-01-15T16:09:43.082Z,11.87
2019-01-15T16:12:45.037Z,11.50
2019-01-15T16:15:40.891Z,12.20
2019-01-15T16:18:35.538Z,12.17
2019-01-15T16:21:25.312Z,11.20
2019-01-15T16:24:09.928Z,11.07
2019-01-15T16:27:17.921Z,12.23
2019-01-15T16:30:23.136Z,11.80
2019-01-15T16:33:12.903Z,11.97
2019-01-15T16:36:00.497Z,12.60
2019-01-15T16:38:53.580Z,12.40
2019-01-15T16:41:42.105Z,11.27
2019-01-15T16:44:30.520Z,11.90
2019-01-15T16:47:23.089Z,10.77
2019-01-15T16:50:15.985Z,11.87
2019-01-15T16:53:08.780Z,12.00
2019-01-15T16:56:01.571Z,12.57
2019-01-15T16:58:50.079Z,12.73
2019-01-15T17:01:51.764Z,12.97
2019-01-15T17:04:50.765Z,13.90
2019-01-15T17:07:40.508Z,13.37
2019-01-15T17:10:25.391Z,12.93
2019-01-15T17:13:21.008Z,13.47
2019-01-15T17:16:10.764Z,14.40
2019-01-15T17:19:10.333Z,13.73
2019-01-15T17:21:59.158Z,13.80
2019-01-15T17:24:47.412Z,16.67
2019-01-15T17:27:55.450Z,15.93
2019-01-15T17:30:40.609Z,17.80
2019-01-15T17:33:28.801Z,16.43
2019-01-15T17:36:24.657Z,18.60
2019-01-15T17:39:20.432Z,18.73
2019-01-15T17:42:08.589Z,20.17
2019-01-15T17:45:02.302Z,19.07
2019-01-15T17:48:10.244Z,20.33
2019-01-15T17:50:58.207Z,22.20
2019-01-15T17:53:47.938Z,18.77
2019-01-15T17:56:40.481Z,19.43
2019-01-15T17:59:28.728Z,20.97
2019-01-15T18:02:33.420Z,21.40
2019-01-15T18:05:32.976Z,20.93
2019-01-15T18:08:21.130Z,23.40
2019-01-15T18:11:09.533Z,22.33
2019-01-15T18:14:08.264Z,24.43
2019-01-15T18:16:57.984Z,23.07
2019-01-15T18:19:46.767Z,22.37
2019-01-15T18:22:36.891Z,23.47
2019-01-15T18:25:30.279Z,23.17
2019-01-15T18:28:20.423Z,23.40
2019-01-15T18:31:08.995Z,23.10
2019-01-15T18:33:57.263Z,25.03
2019-01-15T18:36:42.440Z,23.00
2019-01-15T18:39:30.946Z,22.37
2019-01-15T18:42:26.933Z,24.50
2019-01-15T18:45:09.697Z,23.30
2019-01-15T18:48:08.719Z,23.00
2019-01-15T18:50:57.507Z,23.63
2019-01-15T18:53:46.400Z,23.30
2019-01-15T18:56:49.438Z,25.00
2019-01-15T18:59:45.544Z,23.77
2019-01-15T19:02:38.333Z,24.40
2019-01-15T19:05:43.146Z,27.10
2019-01-15T19:08:35.414Z,24.67
2019-01-15T19:11:25.215Z,24.33
2019-01-15T19:14:07.148Z,25.70
2019-01-15T19:20:11.943Z,26.67
2019-01-15T19:23:01.688Z,26.97
2019-01-15T19:25:50.223Z,27.43
2019-01-15T19:28:40.994Z,24.77
2019-01-15T19:31:36.950Z,26.27
2019-01-15T19:34:26.997Z,27.73
2019-01-15T19:37:20.640Z,26.30
2019-01-15T19:39:59.160Z,28.63
2019-01-15T19:43:01.121Z,27.50
2019-01-15T19:45:51.411Z,28.90
2019-01-15T19:48:38.617Z,29.57
2019-01-15T19:51:31.179Z,28.37
2019-01-15T19:54:26.755Z,26.10
2019-01-15T19:57:26.715Z,28.20
2019-01-15T20:00:16.561Z,26.80
2019-01-15T20:03:06.380Z,26.83
2019-01-15T20:05:49.522Z,26.97
2019-01-15T20:08:56.369Z,29.13
2019-01-15T20:12:02.045Z,28.33
2019-01-15T20:15:00.426Z,28.90
2019-01-15T20:17:59.297Z,28.30
2019-01-15T20:20:52.707Z,27.77
2019-01-15T20:23:52.172Z,28.73
2019-01-15T20:26:35.514Z,30.27
2019-01-15T20:29:40.633Z,29.13
2019-01-15T20:32:21.513Z,26.80
2019-01-15T20:35:24.146Z,27.90
2019-01-15T20:38:18.174Z,27.87
2019-01-15T20:41:11.087Z,27.07
2019-01-15T20:44:07.141Z,28.37
2019-01-15T20:46:56.870Z,27.10
2019-01-15T20:49:45.035Z,26.30
2019-01-15T20:52:32.846Z,25.30
2019-01-15T20:55:21.202Z,25.33
2019-01-15T20:58:13.294Z,25.23
2019-01-15T21:01:15.699Z,24.93
2019-01-15T21:04:20.657Z,25.33
2019-01-15T21:07:03.066Z,23.97
2019-01-15T21:10:05.151Z,23.10
2019-01-15T21:15:53.143Z,23.23
2019-01-15T21:18:47.074Z,22.20
2019-01-15T21:21:26.246Z,22.60
2019-01-15T21:24:23.365Z,24.10
2019-01-15T21:27:13.604Z,22.07
2019-01-15T21:30:06.636Z,22.50
2019-01-15T21:33:05.249Z,23.47
2019-01-15T21:35:57.877Z,24.50
2019-01-15T21:38:59.772Z,21.47
2019-01-15T21:42:08.639Z,22.50
2019-01-15T21:44:53.938Z,21.83
2019-01-15T21:47:52.658Z,23.30
2019-01-15T21:50:37.184Z,22.23
2019-01-15T21:53:37.628Z,23.77
2019-01-15T21:56:22.548Z,21.00
2019-01-15T21:59:06.020Z,22.40
2019-01-15T22:02:05.099Z,20.67
2019-01-15T22:04:56.114Z,20.73
2019-01-15T22:07:44.368Z,20.07
2019-01-15T22:10:32.660Z,20.50
2019-01-15T22:13:17.128Z,21.20
2019-01-15T22:16:05.457Z,20.30
2019-01-15T22:18:54.893Z,20.10
2019-01-15T22:21:53.461Z,19.87
2019-01-15T22:24:58.361Z,20.13
2019-01-15T22:27:48.108Z,20.77
2019-01-15T22:30:31.436Z,18.30
2019-01-15T22:33:27.091Z,20.67
2019-01-15T22:36:14.553Z,20.17
2019-01-15T22:38:56.132Z,20.97
2019-01-15T22:41:57.827Z,20.60
2019-01-15T22:44:46.576Z,19.00
2019-01-15T22:47:36.316Z,19.87
2019-01-15T22:50:26.123Z,19.53
2019-01-15T22:53:18.841Z,21.07
2019-01-15T22:56:03.428Z,20.80
2019-01-15T22:58:59.496Z,21.20
2019-01-15T23:01:50.999Z,23.60
2019-01-15T23:04:43.371Z,23.37
2019-01-15T23:07:39.185Z,23.10
2019-01-15T23:10:32.650Z,21.93
2019-01-15T23:13:25.460Z,21.40
2019-01-15T23:16:13.403Z,22.43
2019-01-15T23:18:56.227Z,21.63
2019-01-15T23:21:55.129Z,20.73
2019-01-15T23:24:53.949Z,20.27
2019-01-15T23:27:43.664Z,21.50
2019-01-15T23:30:34.977Z,21.83
2019-01-15T23:33:30.980Z,22.03
2019-01-15T23:36:29.775Z,21.63
2019-01-15T23:39:19.499Z,23.40
2019-01-15T23:42:07.908Z,22.13
2019-01-15T23:44:57.664Z,22.47
2019-01-15T23:47:45.882Z,23.30
2019-01-15T23:50:44.444Z,21.80
2019-01-15T23:53:37.078Z,23.50
2019-01-15T23:56:35.922Z,22.03
2019-01-15T23:59:18.756Z,23.97
